Time;durP1;ratioP1;P1;durP2;ratioP2;P2;SDS_P1;SDS_P2;PMS_P1;PMS_P2;Temp;Humidity;BMP_temperature;BMP_pressure;BME280_temperature;BME280_humidity;BME280_pressure;Samples;Min_cycle;Max_cycle;Signal;HPM_P1;HPM_P2
2022/02/08 00:01:13;;;;;;;15.30;3.90;;;;;;;1.30;100.00;99198.71;105282;1268;61273;-74
2022/02/08 00:03:40;;;;;;;13.20;4.00;;;;;;;1.31;100.00;99206.19;105239;1268;75075;-76
2022/02/08 00:08:39;;;;;;;13.10;4.00;;;;;;;1.32;100.00;99213.02;105236;1268;73430;-76
2022/02/08 00:11:07;;;;;;;16.90;4.10;;;;;;;1.34;100.00;99219.63;105248;1268;61187;-76
2022/02/08 00:13:33;;;;;;;14.90;4.20;;;;;;;1.35;100.00;99220.30;105188;1268;61268;-75
2022/02/08 00:16:00;;;;;;;14.50;3.90;;;;;;;1.35;100.00;99220.81;105212;1268;74481;-75
2022/02/08 00:18:27;;;;;;;15.50;4.40;;;;;;;1.38;100.00;99228.26;104998;1269;68382;-76
2022/02/08 00:20:53;;;;;;;14.20;4.00;;;;;;;1.40;100.00;99220.70;104954;1271;74607;-75
2022/02/08 00:23:20;;;;;;;15.70;6.00;;;;;;;1.42;100.00;99224.84;105265;1268;61335;-75
2022/02/08 00:25:47;;;;;;;16.80;4.50;;;;;;;1.43;100.00;99227.45;105240;1269;61268;-76
2022/02/08 00:28:13;;;;;;;14.80;4.40;;;;;;;1.43;100.00;99227.95;105320;1268;74587;-75
2022/02/08 00:30:40;;;;;;;15.10;4.20;;;;;;;1.44;100.00;99226.19;105288;1271;61377;-75
2022/02/08 00:33:06;;;;;;;12.00;4.80;;;;;;;1.44;100.00;99224.59;105240;1268;61373;-76
2022/02/08 00:35:33;;;;;;;13.10;4.30;;;;;;;1.45;100.00;99233.33;105217;1271;61263;-75
2022/02/08 00:37:59;;;;;;;14.50;4.10;;;;;;;1.46;100.00;99238.74;105013;1270;61351;-75
2022/02/08 00:40:27;;;;;;;11.00;3.50;;;;;;;1.46;100.00;99243.99;105267;1271;61230;-75
2022/02/08 00:42:55;;;;;;;13.70;3.80;;;;;;;1.46;100.00;99244.50;105258;1268;69368;-75
2022/02/08 00:45:46;;;;;;;18.30;4.30;;;;;;;1.47;100.00;99246.91;105021;1271;74296;-75
2022/02/08 00:48:19;;;;;;;11.20;3.70;;;;;;;1.48;100.00;99247.77;104996;1268;61349;-76
2022/02/08 00:50:50;;;;;;;16.60;4.50;;;;;;;1.48;100.00;99250.39;105276;1268;62020;-75
2022/02/08 00:53:17;;;;;;;9.80;3.40;;;;;;;1.50;100.00;99256.13;105303;1271;76432;-78
2022/02/08 00:55:45;;;;;;;16.70;3.70;;;;;;;1.51;100.00;99259.77;105256;1270;69111;-75
2022/02/08 00:58:12;;;;;;;20.20;4.60;;;;;;;1.54;100.00;99256.22;105242;1268;72694;-73
2022/02/08 01:00:39;;;;;;;20.40;5.30;;;;;;;1.55;100.00;99258.28;105007;1271;61442;-74
2022/02/08 01:03:07;;;;;;;13.90;3.80;;;;;;;1.56;100.00;99260.89;105268;1271;61263;-74
2022/02/08 01:05:40;;;;;;;12.20;3.70;;;;;;;1.57;100.00;99260.16;105251;1271;75244;-75
2022/02/08 01:08:07;;;;;;;14.90;3.90;;;;;;;1.58;100.00;99265.57;105122;1271;69432;-73
2022/02/08 01:10:39;;;;;;;13.20;4.00;;;;;;;1.58;100.00;99268.70;105276;1269;74524;-77
2022/02/08 01:13:08;;;;;;;13.40;4.90;;;;;;;1.59;100.00;99262.22;105055;1268;252896;-75
2022/02/08 01:15:36;;;;;;;15.50;4.80;;;;;;;1.61;100.00;99268.30;105326;1271;61330;-76
2022/02/08 01:18:04;;;;;;;14.70;3.30;;;;;;;1.61;100.00;99267.42;105246;1268;75161;-75
2022/02/08 01:20:37;;;;;;;13.80;4.30;;;;;;;1.62;100.00;99268.80;105368;1271;70233;-76
2022/02/08 01:23:10;;;;;;;14.70;4.00;;;;;;;1.64;100.00;99273.80;105266;1268;72621;-75
2022/02/08 01:25:44;;;;;;;13.20;3.70;;;;;;;1.64;100.00;99274.50;105268;1271;61612;-76
2022/02/08 01:30:55;;;;;;;13.30;4.00;;;;;;;1.67;100.00;99279.67;105000;1271;76342;-76
2022/02/08 01:38:29;;;;;;;13.10;3.40;;;;;;;1.72;100.00;99290.41;105238;1268;61287;-76
2022/02/08 01:41:27;;;;;;;16.00;4.30;;;;;;;1.72;100.00;99296.35;105239;1271;61200;-77
2022/02/08 01:46:35;;;;;;;16.10;4.30;;;;;;;1.76;100.00;99298.53;105273;1269;70390;-76
2022/02/08 01:51:59;;;;;;;14.20;2.90;;;;;;;1.79;100.00;99306.16;104918;1268;61343;-75
2022/02/08 01:54:27;;;;;;;14.30;3.90;;;;;;;1.81;100.00;99308.76;105283;1271;61233;-77
2022/02/08 01:56:54;;;;;;;12.50;3.10;;;;;;;1.82;100.00;99314.14;105021;1271;75308;-76
2022/02/08 01:59:24;;;;;;;10.70;3.40;;;;;;;1.82;100.00;99312.39;105266;1271;68639;-74
2022/02/08 02:01:52;;;;;;;12.60;4.20;;;;;;;1.83;100.00;99319.38;105292;1270;74473;-74
2022/02/08 02:04:19;;;;;;;13.30;3.70;;;;;;;1.84;100.00;99318.64;105235;1268;61576;-74
2022/02/08 02:06:45;;;;;;;10.50;3.10;;;;;;;1.86;100.00;99323.69;105230;1269;61336;-75
2022/02/08 02:09:12;;;;;;;16.20;3.90;;;;;;;1.87;100.00;99328.04;105290;1271;75121;-75
2022/02/08 02:11:39;;;;;;;10.50;3.50;;;;;;;1.88;100.00;99335.02;105270;1268;69178;-75
2022/02/08 02:14:05;;;;;;;13.00;3.10;;;;;;;1.88;100.00;99340.11;105226;1268;73404;-74
2022/02/08 02:16:48;;;;;;;9.30;3.00;;;;;;;1.89;100.00;99342.70;105244;1268;61259;-77
2022/02/08 02:19:15;;;;;;;15.10;4.20;;;;;;;1.90;100.00;99348.64;105245;1271;61335;-77
2022/02/08 02:21:41;;;;;;;18.30;3.60;;;;;;;1.90;100.00;99354.23;105216;1268;74262;-76
2022/02/08 02:24:08;;;;;;;14.40;3.60;;;;;;;1.90;100.00;99352.65;105194;1268;70133;-75
2022/02/08 02:26:34;;;;;;;18.20;3.50;;;;;;;1.90;100.00;99354.59;105228;1269;73350;-75
2022/02/08 02:29:01;;;;;;;15.60;3.50;;;;;;;1.90;100.00;99358.96;105248;1271;61390;-75
2022/02/08 02:31:28;;;;;;;10.60;3.90;;;;;;;1.90;100.00;99358.10;105296;1271;61254;-75
2022/02/08 02:33:54;;;;;;;15.50;3.40;;;;;;;1.90;100.00;99354.77;105279;1271;75066;-75
2022/02/08 02:36:21;;;;;;;14.90;2.90;;;;;;;1.92;100.00;99365.40;105301;1270;61364;-75
2022/02/08 02:38:47;;;;;;;9.30;3.50;;;;;;;1.93;100.00;99367.83;105205;1269;61252;-76
2022/02/08 02:41:15;;;;;;;15.10;3.40;;;;;;;1.92;100.00;99373.63;105288;1271;61361;-75
2022/02/08 02:43:43;;;;;;;13.10;4.40;;;;;;;1.91;100.00;99370.15;105261;1271;61204;-77
2022/02/08 02:46:10;;;;;;;9.10;2.80;;;;;;;1.90;100.00;99374.20;105245;1271;75368;-74
2022/02/08 02:48:36;;;;;;;16.40;3.00;;;;;;;1.91;100.00;99380.85;105289;1271;68411;-74
2022/02/08 02:51:03;;;;;;;14.20;3.60;;;;;;;1.92;100.00;99386.24;105201;1271;73271;-75
2022/02/08 02:53:30;;;;;;;14.60;4.00;;;;;;;1.92;100.00;99390.45;105037;1271;61455;-75
2022/02/08 02:55:57;;;;;;;15.70;3.60;;;;;;;1.94;100.00;99393.21;105293;1271;61193;-76
2022/02/08 02:58:28;;;;;;;11.20;3.20;;;;;;;1.95;100.00;99400.02;105265;1271;75267;-75
2022/02/08 03:19:54;;;;;;;13.50;3.00;;;;;;;1.91;100.00;99436.20;105272;1268;61291;-76
2022/02/08 03:22:21;;;;;;;11.70;3.20;;;;;;;1.94;100.00;99442.10;105264;1271;61345;-76
2022/02/08 03:24:47;;;;;;;13.60;4.00;;;;;;;1.95;100.00;99452.41;104984;1272;61272;-74
2022/02/08 03:27:15;;;;;;;10.20;3.20;;;;;;;1.96;100.00;99457.81;105275;1268;61627;-75
2022/02/08 03:29:45;;;;;;;11.30;3.40;;;;;;;1.97;100.00;99461.83;105247;1268;73069;-76
2022/02/08 03:32:13;;;;;;;11.20;3.40;;;;;;;1.95;100.00;99463.98;105185;1271;61385;-74
2022/02/08 03:34:40;;;;;;;13.10;3.50;;;;;;;1.92;100.00;99468.23;105288;1271;61309;-76
2022/02/08 03:37:07;;;;;;;10.00;3.40;;;;;;;1.89;100.00;99475.33;105284;1269;75339;-75
2022/02/08 03:39:38;;;;;;;14.80;3.80;;;;;;;1.85;100.00;99476.63;105312;1268;61379;-75
2022/02/08 03:42:14;;;;;;;13.00;3.70;;;;;;;1.83;100.00;99480.91;105296;1268;74239;-74
2022/02/08 03:44:45;;;;;;;13.50;5.70;;;;;;;1.80;100.00;99478.70;105309;1268;61267;-75
2022/02/08 03:47:12;;;;;;;28.10;10.00;;;;;;;1.76;100.00;99480.73;105340;1268;62219;-74
2022/02/08 03:49:40;;;;;;;23.20;5.60;;;;;;;1.72;100.00;99484.48;105179;1272;74154;-75
2022/02/08 03:52:07;;;;;;;19.00;4.80;;;;;;;1.70;100.00;99484.37;105377;1273;69279;-75
2022/02/08 03:54:35;;;;;;;15.00;4.10;;;;;;;1.66;100.00;99485.49;105762;1269;74174;-75
2022/02/08 03:57:07;;;;;;;12.00;4.40;;;;;;;1.65;100.00;99495.34;105819;1274;61413;-75
2022/02/08 03:59:34;;;;;;;15.40;4.90;;;;;;;1.64;100.00;99500.61;105900;1272;61306;-76
2022/02/08 04:07:16;;;;;;;14.20;4.80;;;;;;;1.59;100.00;99508.60;108807;1268;72621;-75
2022/02/08 04:09:43;;;;;;;13.30;4.30;;;;;;;1.58;100.00;99510.56;108607;1268;59497;-74
2022/02/08 04:12:27;;;;;;;17.20;4.20;;;;;;;1.58;100.00;99513.00;107530;1268;61238;-75
2022/02/08 04:15:17;;;;;;;15.70;4.20;;;;;;;1.57;100.00;99518.81;106621;1268;74885;-75
2022/02/08 04:31:58;;;;;;;15.60;5.00;;;;;;;1.51;100.00;99542.57;105257;1268;70717;-75
2022/02/08 04:42:39;;;;;;;17.60;4.80;;;;;;;1.49;100.00;99563.96;105324;1268;76399;-76
2022/02/08 04:45:19;;;;;;;30.40;9.10;;;;;;;1.50;100.00;99571.84;105276;1268;69172;-76
2022/02/08 04:48:11;;;;;;;23.20;9.30;;;;;;;1.50;100.00;99573.41;105033;1268;73176;-77
2022/02/08 04:50:37;;;;;;;17.10;6.40;;;;;;;1.49;100.00;99574.47;105234;1271;61381;-80
2022/02/08 04:53:13;;;;;;;15.40;5.70;;;;;;;1.49;100.00;99578.34;105248;1268;61740;-77
2022/02/08 04:55:49;;;;;;;19.90;7.90;;;;;;;1.49;100.00;99578.84;105262;1268;75313;-75
2022/02/08 04:58:28;;;;;;;24.80;9.60;;;;;;;1.49;100.00;99579.02;105258;1269;69208;-76
2022/02/08 05:41:53;;;;;;;11.70;3.60;;;;;;;1.68;100.00;99612.44;105210;1271;74273;-74
2022/02/08 05:47:07;;;;;;;16.70;5.20;;;;;;;1.67;100.00;99627.17;105257;1271;61325;-75
2022/02/08 05:49:50;;;;;;;9.20;4.10;;;;;;;1.67;100.00;99629.98;105300;1270;75214;-74
2022/02/08 05:54:44;;;;;;;35.40;7.80;;;;;;;1.66;100.00;99634.20;105465;1271;74748;-76
2022/02/08 05:57:11;;;;;;;36.20;9.70;;;;;;;1.64;100.00;99634.77;105322;1269;61296;-76
2022/02/08 05:59:37;;;;;;;30.70;7.50;;;;;;;1.63;100.00;99641.45;105457;1268;61283;-84
2022/02/08 06:02:05;;;;;;;31.20;9.00;;;;;;;1.62;100.00;99639.38;105533;1268;75361;-85
2022/02/08 06:04:36;;;;;;;39.70;11.50;;;;;;;1.61;100.00;99644.46;105442;1268;70499;-82
2022/02/08 06:07:03;;;;;;;28.50;9.50;;;;;;;1.60;100.00;99643.77;105480;1268;74164;-86
2022/02/08 06:09:29;;;;;;;40.20;15.80;;;;;;;1.60;100.00;99647.81;105754;1271;61351;-87
2022/02/08 06:11:56;;;;;;;30.00;9.70;;;;;;;1.59;100.00;99647.14;105851;1268;61910;-85
2022/02/08 06:14:25;;;;;;;23.40;8.80;;;;;;;1.58;100.00;99644.52;105795;1268;76278;-83
2022/02/08 06:16:52;;;;;;;19.90;8.10;;;;;;;1.58;100.00;99643.13;105840;1268;67525;-88
2022/02/08 06:19:19;;;;;;;18.20;6.90;;;;;;;1.59;100.00;99648.34;105486;1269;74044;-85
2022/02/08 06:21:46;;;;;;;16.30;5.50;;;;;;;1.60;100.00;99654.46;105425;1268;61412;-74
2022/02/08 06:24:13;;;;;;;11.60;4.80;;;;;;;1.62;100.00;99660.38;105295;1268;61953;-80
2022/02/08 06:26:40;;;;;;;16.20;5.80;;;;;;;1.65;100.00;99662.08;105290;1268;76126;-74
2022/02/08 06:29:14;;;;;;;14.00;5.50;;;;;;;1.65;100.00;99663.82;105313;1268;70453;-77
2022/02/08 06:31:42;;;;;;;16.30;5.60;;;;;;;1.67;100.00;99668.86;105276;1268;73177;-76
2022/02/08 06:34:08;;;;;;;15.30;5.50;;;;;;;1.70;100.00;99671.96;105020;1271;61319;-76
2022/02/08 06:36:35;;;;;;;16.60;4.70;;;;;;;1.71;100.00;99672.98;105298;1268;61297;-76
2022/02/08 06:39:03;;;;;;;22.20;7.00;;;;;;;1.72;100.00;99678.55;105277;1268;76384;-74
2022/02/08 06:41:30;;;;;;;29.00;10.00;;;;;;;1.74;100.00;99678.88;105254;1268;68095;-73
2022/02/08 06:43:57;;;;;;;27.70;9.20;;;;;;;1.76;100.00;99679.89;105313;1268;73205;-75
2022/02/08 06:46:23;;;;;;;23.50;9.10;;;;;;;1.79;100.00;99685.79;105296;1268;61249;-75
2022/02/08 06:48:50;;;;;;;33.80;11.70;;;;;;;1.80;100.00;99687.52;105314;1268;61801;-77
2022/02/08 06:51:16;;;;;;;27.50;8.50;;;;;;;1.82;100.00;99690.64;104969;1268;74858;-76
2022/02/08 06:53:43;;;;;;;24.30;8.70;;;;;;;1.84;100.00;99691.46;105324;1268;70274;-75
2022/02/08 06:56:09;;;;;;;24.70;8.60;;;;;;;1.87;100.00;99695.61;105231;1272;73242;-74
2022/02/08 06:58:50;;;;;;;42.20;11.00;;;;;;;1.90;100.00;99698.71;105347;1268;61297;-85
2022/02/08 07:01:19;;;;;;;43.10;9.90;;;;;;;1.94;100.00;99699.30;105300;1271;61258;-76
2022/02/08 07:03:48;;;;;;;32.40;8.70;;;;;;;1.99;100.00;99703.25;105405;1268;76011;-76
2022/02/08 07:06:14;;;;;;;30.50;8.80;;;;;;;2.03;100.00;99705.44;105097;1268;67481;-78
2022/02/08 07:08:41;;;;;;;31.30;9.90;;;;;;;2.08;100.00;99713.06;105273;1268;73914;-77
2022/02/08 07:11:14;;;;;;;25.40;10.50;;;;;;;2.10;100.00;99713.55;105080;1269;61540;-77
2022/02/08 07:13:43;;;;;;;26.20;9.40;;;;;;;2.13;100.00;99715.39;105274;1268;61144;-77
2022/02/08 07:16:14;;;;;;;22.40;9.50;;;;;;;2.16;100.00;99719.02;105454;1268;75229;-76
2022/02/08 07:18:40;;;;;;;18.60;7.60;;;;;;;2.19;100.00;99719.48;105412;1268;69347;-77
2022/02/08 07:21:07;;;;;;;17.80;8.70;;;;;;;2.17;100.00;99724.06;105090;1271;61526;-77
2022/02/08 07:23:34;;;;;;;27.80;9.60;;;;;;;2.17;100.00;99726.01;105063;1269;61230;-83
2022/02/08 07:26:01;;;;;;;32.10;10.70;;;;;;;2.17;100.00;99726.00;105355;1268;61300;-74
2022/02/08 07:28:28;;;;;;;28.70;9.50;;;;;;;2.20;100.00;99727.70;105305;1268;76041;-76
2022/02/08 07:31:07;;;;;;;24.50;8.80;;;;;;;2.23;100.00;99729.92;105271;1268;69772;-77
2022/02/08 07:33:38;;;;;;;35.20;10.80;;;;;;;2.26;100.00;99720.56;105259;1268;73172;-75
2022/02/08 07:36:26;;;;;;;41.90;11.40;;;;;;;2.27;100.00;99722.99;105259;1268;61323;-76
2022/02/08 07:38:53;;;;;;;86.20;18.90;;;;;;;2.31;100.00;99723.63;105283;1268;61698;-75
2022/02/08 07:41:38;;;;;;;106.00;21.00;;;;;;;2.36;100.00;99727.37;105306;1267;75099;-75
2022/02/08 07:44:06;;;;;;;112.60;24.70;;;;;;;2.41;100.00;99724.98;105300;1268;69260;-75
2022/02/08 07:46:33;;;;;;;90.80;17.60;;;;;;;2.45;100.00;99726.98;105364;1268;74345;-75
2022/02/08 07:49:03;;;;;;;62.20;14.70;;;;;;;2.50;100.00;99729.69;104987;1269;61222;-76
2022/02/08 07:51:36;;;;;;;58.90;13.00;;;;;;;2.55;100.00;99735.02;105289;1269;61227;-75
2022/02/08 07:54:04;;;;;;;43.60;11.20;;;;;;;2.59;100.00;99734.39;105326;1268;76329;-74
2022/02/08 07:56:31;;;;;;;29.60;8.40;;;;;;;2.64;100.00;99726.56;105287;1268;69283;-76
2022/02/08 07:58:58;;;;;;;24.20;9.60;;;;;;;2.69;100.00;99722.05;105252;1268;74317;-76
2022/02/08 08:01:24;;;;;;;21.50;7.60;;;;;;;2.73;100.00;99727.59;105313;1268;61377;-77
2022/02/08 08:03:51;;;;;;;22.60;7.10;;;;;;;2.74;100.00;99731.77;105299;1268;61247;-77
2022/02/08 08:06:19;;;;;;;20.50;8.10;;;;;;;2.76;100.00;99727.52;105314;1268;61827;-77
2022/02/08 08:08:47;;;;;;;18.00;6.70;;;;;;;2.79;99.41;99719.71;105310;1268;69319;-77
2022/02/08 08:11:21;;;;;;;14.70;4.40;;;;;;;2.82;99.12;99721.57;105266;1268;72199;-77
2022/02/08 08:16:39;;;;;;;12.50;3.80;;;;;;;2.91;99.23;99724.00;105324;1268;61911;-75
2022/02/08 08:19:22;;;;;;;12.50;3.20;;;;;;;2.97;98.45;99721.93;105245;1268;75278;-76
2022/02/08 08:21:49;;;;;;;10.80;3.50;;;;;;;3.01;98.35;99717.60;105495;1268;69177;-79
2022/02/08 08:24:17;;;;;;;8.90;2.80;;;;;;;3.08;97.32;99714.10;106773;1268;74301;-78
2022/02/08 08:26:44;;;;;;;11.90;3.70;;;;;;;3.15;98.28;99716.20;105837;1268;61325;-82
2022/02/08 08:29:11;;;;;;;14.30;3.60;;;;;;;3.23;97.03;99713.38;105123;1271;61378;-76
2022/02/08 08:31:37;;;;;;;8.10;3.00;;;;;;;3.33;97.43;99710.49;105342;1268;74716;-77
2022/02/08 08:34:04;;;;;;;10.70;3.50;;;;;;;3.43;97.80;99709.52;105179;1268;61261;-77
2022/02/08 08:36:30;;;;;;;14.90;4.30;;;;;;;3.52;97.63;99708.92;105292;1268;74172;-75
2022/02/08 08:38:57;;;;;;;11.20;3.90;;;;;;;3.61;97.58;99706.23;105319;1268;61283;-76
2022/02/08 08:41:37;;;;;;;12.00;4.00;;;;;;;3.71;97.32;99703.66;105353;1268;61368;-76
2022/02/08 08:49:58;;;;;;;31.60;8.70;;;;;;;3.88;95.68;99700.39;105266;1268;74876;-76
2022/02/08 08:52:30;;;;;;;28.00;6.90;;;;;;;3.92;95.88;99704.86;105297;1268;61420;-76
2022/02/08 08:54:58;;;;;;;21.30;5.60;;;;;;;3.90;95.02;99708.05;105357;1268;61331;-77
2022/02/08 08:57:28;;;;;;;12.40;4.70;;;;;;;3.81;93.98;99709.55;105277;1268;75127;-76
2022/02/08 08:59:56;;;;;;;16.50;5.50;;;;;;;3.71;95.17;99703.34;105331;1268;69206;-77
2022/02/08 09:02:22;;;;;;;15.20;4.70;;;;;;;3.70;95.34;99696.86;105242;1268;73406;-77
2022/02/08 09:04:51;;;;;;;17.00;5.40;;;;;;;3.67;95.63;99697.45;105282;1268;61586;-75
2022/02/08 09:07:18;;;;;;;16.00;6.00;;;;;;;3.68;95.99;99692.67;105293;1268;61237;-75
2022/02/08 09:09:48;;;;;;;16.10;7.00;;;;;;;3.70;96.08;99688.23;105300;1268;76089;-76
2022/02/08 09:12:23;;;;;;;18.10;6.50;;;;;;;3.74;95.91;99691.29;105050;1268;68311;-75
2022/02/08 09:15:22;;;;;;;15.60;6.50;;;;;;;3.80;96.03;99687.61;105326;1268;74673;-77
2022/02/08 09:28:40;;;;;;;21.70;10.60;;;;;;;3.73;96.56;99690.61;105229;1268;73304;-74
2022/02/08 09:31:10;;;;;;;25.00;12.70;;;;;;;3.74;97.12;99695.87;105253;1267;61275;-75
2022/02/08 09:33:37;;;;;;;22.40;9.00;;;;;;;3.76;97.09;99695.10;105274;1268;61260;-74
2022/02/08 09:36:04;;;;;;;19.20;7.70;;;;;;;3.80;97.20;99698.70;105319;1268;75202;-75
2022/02/08 09:38:31;;;;;;;21.80;8.20;;;;;;;3.92;96.97;99697.64;105266;1268;68436;-76
2022/02/08 09:41:01;;;;;;;19.90;7.90;;;;;;;4.00;96.76;99688.44;105280;1268;73472;-77
2022/02/08 09:43:30;;;;;;;20.40;9.10;;;;;;;4.01;97.01;99677.52;105316;1268;61376;-77
2022/02/08 09:46:01;;;;;;;21.20;10.40;;;;;;;4.05;96.94;99682.15;105292;1268;61382;-77
2022/02/08 09:48:38;;;;;;;20.00;8.20;;;;;;;4.08;97.13;99673.80;105349;1268;75263;-77
2022/02/08 09:51:06;;;;;;;22.50;9.40;;;;;;;4.25;97.18;99677.16;105323;1268;69461;-77
2022/02/08 09:53:35;;;;;;;20.80;8.50;;;;;;;4.44;97.01;99680.95;105077;1269;72322;-77
2022/02/08 09:56:03;;;;;;;20.60;8.80;;;;;;;4.59;96.71;99677.33;105312;1268;61342;-77
2022/02/08 09:58:31;;;;;;;20.90;9.00;;;;;;;4.58;96.53;99679.66;105222;1272;61789;-77
2022/02/08 10:01:11;;;;;;;20.10;7.70;;;;;;;4.51;96.63;99673.55;105309;1271;75301;-76
2022/02/08 10:03:59;;;;;;;19.40;8.90;;;;;;;4.45;96.55;99664.58;105415;1271;70424;-78
2022/02/08 10:06:28;;;;;;;21.80;8.10;;;;;;;4.42;96.85;99664.14;105336;1271;74666;-76
2022/02/08 10:09:05;;;;;;;21.40;8.20;;;;;;;4.40;96.22;99667.36;105320;1271;61354;-76
2022/02/08 10:11:43;;;;;;;21.20;8.30;;;;;;;4.40;96.53;99663.66;105373;1271;61268;-76
2022/02/08 10:22:40;;;;;;;17.50;6.90;;;;;;;5.47;95.56;99633.68;105588;1269;61395;-78
2022/02/08 10:25:09;;;;;;;17.20;5.90;;;;;;;5.74;95.66;99622.29;105505;1271;61263;-77
2022/02/08 10:27:41;;;;;;;9.70;4.40;;;;;;;5.88;95.03;99617.91;106215;1271;74676;-77
2022/02/08 10:38:23;;;;;;;16.40;5.40;;;;;;;5.32;93.15;99611.67;108637;1268;60667;-78
2022/02/08 10:40:50;;;;;;;14.40;5.10;;;;;;;5.31;92.56;99604.48;107993;1271;74980;-77
2022/02/08 10:43:18;;;;;;;9.90;4.60;;;;;;;5.37;92.76;99599.71;106883;1271;69241;-77
2022/02/08 10:45:47;;;;;;;13.10;6.00;;;;;;;5.55;92.66;99598.17;107448;1270;72802;-78
2022/02/08 10:48:21;;;;;;;13.00;5.20;;;;;;;5.79;92.40;99598.68;105909;1271;61170;-77
2022/02/08 10:50:54;;;;;;;13.40;5.60;;;;;;;5.88;91.72;99593.90;105473;1269;61281;-80
2022/02/08 10:53:24;;;;;;;13.20;4.80;;;;;;;5.84;91.00;99597.27;105310;1271;75261;-77
2022/02/08 10:56:00;;;;;;;11.00;4.10;;;;;;;5.75;90.33;99591.08;105334;1271;69262;-77
2022/02/08 10:58:38;;;;;;;10.30;4.40;;;;;;;5.66;89.97;99572.36;105188;1271;72669;-78
2022/02/08 11:01:13;;;;;;;13.60;4.50;;;;;;;5.61;89.56;99574.48;104977;1271;61442;-78
2022/02/08 11:04:13;;;;;;;14.70;5.70;;;;;;;5.70;89.23;99576.42;105284;1271;61323;-78
2022/02/08 11:06:43;;;;;;;11.60;5.10;;;;;;;5.82;88.88;99575.64;105274;1271;76077;-76
2022/02/08 11:15:31;;;;;;;11.20;3.60;;;;;;;6.30;85.35;99567.97;104879;1274;61553;-78
2022/02/08 11:26:54;;;;;;;9.70;3.70;;;;;;;6.42;85.63;99557.26;105290;1271;73382;-78
2022/02/08 11:29:34;;;;;;;9.60;3.60;;;;;;;6.39;85.56;99545.91;104713;1277;61310;-76
2022/02/08 11:32:06;;;;;;;14.50;5.50;;;;;;;6.37;85.94;99538.02;104749;1277;61343;-77
2022/02/08 12:05:22;;;;;;;10.20;3.00;;;;;;;6.72;84.23;99518.73;105077;1277;70230;-75
2022/02/08 12:07:53;;;;;;;10.90;3.30;;;;;;;6.75;83.95;99521.98;104798;1271;72781;-76
2022/02/08 14:03:45;;;;;;;12.70;5.20;;;;;;;4.88;86.75;99442.94;105297;1268;61396;-75
2022/02/08 14:08:41;;;;;;;13.20;6.10;;;;;;;4.85;87.43;99430.73;105101;1268;70388;-76
2022/02/08 14:12:28;;;;;;;10.90;6.90;;;;;;;4.80;87.97;99426.14;105334;1268;74144;-74
2022/02/08 14:14:15;;;;;;;13.30;6.30;;;;;;;4.74;88.32;99433.95;105194;1268;61340;-79
2022/02/08 14:19:29;;;;;;;11.40;6.20;;;;;;;4.73;88.72;99427.83;105285;1268;76766;-77
2022/02/08 14:30:21;;;;;;;14.00;6.20;;;;;;;4.56;90.19;99403.43;105383;1268;61330;-76
2022/02/08 14:33:00;;;;;;;9.90;5.90;;;;;;;4.50;90.34;99391.88;105313;1268;75336;-76
2022/02/08 14:49:49;;;;;;;10.30;5.20;;;;;;;4.31;91.84;99431.40;105241;1268;70147;-76
2022/02/08 14:57:59;;;;;;;8.80;5.40;;;;;;;4.16;92.76;99429.97;105309;1268;61322;-76
2022/02/08 15:06:04;;;;;;;21.40;9.90;;;;;;;4.07;93.74;99430.30;105283;1268;73216;-74
2022/02/08 15:08:35;;;;;;;53.00;25.90;;;;;;;4.03;93.85;99426.92;105188;1268;61307;-76
2022/02/08 15:11:06;;;;;;;18.50;10.40;;;;;;;3.99;94.25;99431.61;105271;1268;61331;-75
2022/02/08 15:13:35;;;;;;;16.60;9.80;;;;;;;3.95;94.78;99426.63;105985;1268;75214;-76
2022/02/08 15:16:10;;;;;;;20.70;12.60;;;;;;;3.92;95.08;99426.74;105365;1268;67373;-76
2022/02/08 15:18:38;;;;;;;23.70;16.20;;;;;;;3.89;95.14;99416.98;105247;1268;73189;-75
2022/02/08 15:21:08;;;;;;;15.70;8.40;;;;;;;3.89;95.39;99419.11;105306;1266;61307;-75
2022/02/08 15:23:35;;;;;;;16.90;8.30;;;;;;;3.87;95.35;99416.00;105263;1267;61346;-75
2022/02/08 15:26:02;;;;;;;17.70;8.20;;;;;;;3.86;95.48;99417.11;105292;1268;76565;-75
2022/02/08 15:28:29;;;;;;;21.20;9.30;;;;;;;3.85;95.62;99416.08;105291;1268;69062;-76
2022/02/08 15:30:57;;;;;;;17.80;10.50;;;;;;;3.85;95.72;99428.19;105283;1268;74163;-76
2022/02/08 15:33:26;;;;;;;20.30;10.70;;;;;;;3.85;95.93;99426.64;105314;1268;61339;-76
2022/02/08 15:35:54;;;;;;;23.10;12.30;;;;;;;3.84;96.04;99431.23;105551;1268;61261;-74
2022/02/08 15:38:27;;;;;;;20.80;10.30;;;;;;;3.84;96.08;99432.98;105480;1268;76114;-75
2022/02/08 15:40:54;;;;;;;32.00;14.70;;;;;;;3.83;96.34;99425.29;105274;1268;67390;-77
2022/02/08 15:43:20;;;;;;;30.50;12.60;;;;;;;3.83;96.48;99421.77;105290;1268;74293;-75
2022/02/08 15:45:53;;;;;;;29.40;14.00;;;;;;;3.83;96.80;99420.38;105303;1268;60552;-76
2022/02/08 15:48:23;;;;;;;24.70;13.30;;;;;;;3.82;96.93;99419.86;105325;1268;61269;-76
2022/02/08 15:53:34;;;;;;;22.30;11.00;;;;;;;3.79;97.44;99390.63;105347;1267;69107;-76
2022/02/08 16:01:26;;;;;;;14.30;9.40;;;;;;;3.77;98.22;99399.48;105399;1268;61153;-75
2022/02/08 16:09:28;;;;;;;15.10;7.80;;;;;;;3.75;98.43;99407.80;105608;1268;73750;-77
2022/02/08 16:17:34;;;;;;;13.40;8.60;;;;;;;3.74;98.91;99402.39;105645;1268;76624;-75
2022/02/08 16:28:12;;;;;;;20.60;10.00;;;;;;;3.81;99.07;99396.70;106274;1268;61246;-76
2022/02/08 16:33:39;;;;;;;18.60;10.00;;;;;;;3.83;99.11;99395.91;107721;1268;69383;-74
2022/02/08 16:46:07;;;;;;;21.80;10.30;;;;;;;3.85;99.37;99394.09;107033;1266;73709;-76
2022/02/08 16:56:21;;;;;;;18.40;9.20;;;;;;;3.87;100.00;99407.77;105362;1268;61294;-76
2022/02/08 16:58:41;;;;;;;17.90;9.20;;;;;;;3.84;100.00;99412.42;105289;1267;76447;-75
2022/02/08 17:01:13;;;;;;;14.80;8.50;;;;;;;3.82;100.00;99409.15;105266;1268;69276;-76
2022/02/08 17:03:44;;;;;;;16.00;9.10;;;;;;;3.82;100.00;99404.59;105344;1268;73945;-76
2022/02/08 17:06:14;;;;;;;14.30;8.30;;;;;;;3.81;100.00;99403.56;105452;1268;61345;-73
2022/02/08 17:08:41;;;;;;;17.20;8.50;;;;;;;3.79;100.00;99398.17;105304;1268;61295;-74
2022/02/08 17:11:08;;;;;;;15.50;8.10;;;;;;;3.77;100.00;99401.75;105302;1268;76236;-73
2022/02/08 17:16:29;;;;;;;16.90;9.40;;;;;;;3.75;100.00;99408.32;105148;1268;73240;-74
2022/02/08 17:46:45;;;;;;;12.90;8.40;;;;;;;3.56;100.00;99401.04;105322;1268;61176;-74
2022/02/08 17:49:11;;;;;;;14.30;9.60;;;;;;;3.52;100.00;99405.36;105060;1268;61253;-74
2022/02/08 17:51:38;;;;;;;12.90;8.90;;;;;;;3.50;100.00;99402.62;105319;1268;72574;-74
2022/02/08 17:54:05;;;;;;;13.30;7.70;;;;;;;3.48;100.00;99396.17;105281;1268;68339;-75
2022/02/08 17:56:31;;;;;;;11.50;8.00;;;;;;;3.46;100.00;99400.79;105074;1268;71620;-73
2022/02/08 17:58:58;;;;;;;12.10;7.80;;;;;;;3.43;100.00;99393.52;105271;1268;61192;-75
2022/02/08 18:01:25;;;;;;;7.50;6.30;;;;;;;3.41;100.00;99398.87;105293;1268;61379;-74
2022/02/08 18:03:51;;;;;;;12.60;8.70;;;;;;;3.39;100.00;99402.45;105257;1268;75795;-74
2022/02/08 18:06:18;;;;;;;13.80;9.00;;;;;;;3.37;100.00;99393.19;105245;1268;70467;-74
2022/02/08 18:08:46;;;;;;;15.50;10.40;;;;;;;3.36;100.00;99392.70;105276;1268;73599;-72
2022/02/08 18:11:13;;;;;;;11.10;8.80;;;;;;;3.36;100.00;99390.23;105248;1267;61381;-74
2022/02/08 18:13:42;;;;;;;14.30;8.60;;;;;;;3.36;100.00;99388.11;105326;1268;62041;-72
2022/02/08 18:16:09;;;;;;;11.70;8.00;;;;;;;3.36;100.00;99386.70;105272;1267;75024;-74
2022/02/08 18:18:40;;;;;;;13.10;9.80;;;;;;;3.38;100.00;99378.44;105308;1268;69389;-73
2022/02/08 18:21:29;;;;;;;12.90;9.30;;;;;;;3.38;100.00;99396.14;105237;1268;74588;-74
2022/02/08 19:07:58;;;;;;;15.00;11.80;;;;;;;3.59;100.00;99413.21;105285;1270;61368;-74
2022/02/08 19:23:37;;;;;;;25.80;17.10;;;;;;;3.64;100.00;99410.97;105098;1271;76195;-73
2022/02/08 19:26:06;;;;;;;16.80;11.90;;;;;;;3.64;100.00;99424.83;105249;1271;68995;-74
2022/02/08 19:28:34;;;;;;;19.20;15.50;;;;;;;3.65;100.00;99435.16;104949;1271;72862;-73
2022/02/08 19:31:02;;;;;;;17.40;13.10;;;;;;;3.67;100.00;99431.60;105228;1269;61377;-73